Tiempo atmosférico en la estación meteorológica de Pedrosa Del Príncipe, Burgos (771 m.)



Fecha
DESCASC
Temp. máxima en grados centígrados (hora)
DESCASC
Temp. mínima en grados centígrados (hora)
DESCASC
Temp. media en grados centígrados
DESCASC
Racha de viento máxima en m/sg (hora)
DESCASC
Velocidad máxima media en intervalos de 10 minutos(hora)
DESCASC
Precipitaciones diarias en mm
DESCASC
Precipitaciones de 00:00 a 06:00 en mm
DESCASC
Precipitaciones de 06:00 a 12:00 en mm
DESCASC
Precipitaciones de 12:00 a 18:00 en mm
DESCASC
Precipitaciones de 18:00 a 24:00 en mm
DESCASC
15-11-2018 16.9 (14:30) 5.6 (07:40) 11.2 6.11 (00:50) 2.5 (00:20) 0 0 0 0 0
14-11-2018 15.1 (14:10) 6.7 (05:00) 10.9 7.5 (23:10) 3.89 (23:10) 0 0 0 0 0
13-11-2018 15.2 (16:20) 6.4 (23:10) 10.8 6.67 (10:40) 4.17 (12:00) 0.2 0 0 0.2 0
12-11-2018 11.3 (13:30) 7.6 (02:00) 9.5 4.44 (02:30) 2.78 (16:00) 4.6 1.6 0 1.2 1.8
11-11-2018 13.8 (12:40) 8 (00:00) 10.9 12.22 (11:50) 6.67 (00:20) 3.4 0 0 1.4 2
10-11-2018 13.5 (15:50) 9 (00:00) 11.3 16.94 (17:10) 9.72 (17:10) 1 0 0.4 0.6 0
09-11-2018 9 (16:20) 3.9 (00:00) 6.5 11.39 (23:10) 6.67 (23:10) 0.2 0 0.2 0 0
08-11-2018 11.9 (13:30) 0.9 (00:00) 6.4 10 (18:10) 5.56 (18:10) 5.8 0 0 0 5.8
07-11-2018 12 (15:00) 1.3 (00:00) 6.6 13.06 (04:10) 7.22 (13:40) 1.6 0.6 0.8 0.2 0
06-11-2018 9 (23:40) 5 (00:00) 7 15 (23:30) 7.78 (23:40) 2.6 0.2 0 1.2 1.2
05-11-2018 9.3 (14:00) 5.4 (00:00) 7.4 10.28 (23:59) 6.11 (23:59) 8.8 6.8 0.8 0.8 0.4
04-11-2018 16.3 (15:00) -1.9 (-00:0) 7.2 8.89 (23:50) 5.28 (23:50) 1 0 0 0 1
03-11-2018 16.7 (16:50) 0 (00:00) 8.4 8.61 (01:10) 5.28 (01:10) 0 0 0 0 0
02-11-2018 15.3 (14:40) 5.9 (00:00) 10.6 8.89 (13:50) 5 (13:40) 0.6 0 0.4 0.2 0
01-11-2018 11.5 (13:40) 2.9 (00:00) 7.2 7.5 (15:30) 4.72 (15:40) 0.2 0 0.2 0 0
31-10-2018 10 (14:10) 4.4 (00:00) 7.2 5.28 (16:20) 3.61 (16:20) 1.4 0 0.2 0.6 0.6
30-10-2018 8.2 (14:10) -0.1 (00:00) 4 9.17 (11:10) 5.28 (13:50) 6.6 0.6 3.8 1.6 0.6
29-10-2018 9.2 (12:20) -1.4 (-00:0) 3.9 11.67 (11:30) 6.39 (11:30) 0 0 0 0 0
28-10-2018 8 (15:10) -3.4 (-00:0) 2.3 10.28 (16:50) 6.67 (13:30) 0.4 0 0.4 0 0
27-10-2018 10.8 (16:00) 3.1 (00:00) 7 10.56 (13:30) 6.39 (17:50) 0.2 0 0.2 0 0
26-10-2018 17.5 (16:40) 2.1 (00:00) 9.8 8.06 (19:40) 4.44 (19:40) 0 0 0 0 0
25-10-2018 22.9 (17:00) -1.5 (-00:0) 10.7 4.72 (17:10) 2.5 (18:10) 0 0 0 0 0
24-10-2018 21 (16:20) -0.6 (-00:0) 10.2 11.67 (14:40) 7.22 (14:00) 0 0 0 0 0
23-10-2018 19.7 (16:40) 5.7 (00:00) 12.7 11.94 (15:20) 6.11 (12:20) 0 0 0 0 0
22-10-2018 18.7 (14:50) 6.7 (00:00) 12.7 13.33 (16:10) 8.33 (15:30) 0 0 0 0 0
21-10-2018 23.7 (16:40) 9.1 (00:00) 16.4 7.22 (17:00) 3.06 (00:20) 0 0 0 0 0
20-10-2018 20.3 (17:00) 10.4 (00:00) 15.3 11.39 (00:10) 7.22 (00:10) 0 0 0 0 0
19-10-2018 19 (16:20) 11.6 (00:00) 15.3 13.61 (11:10) 8.06 (11:10) 0 0 0 0 0
18-10-2018 17.9 (14:20) 9.3 (00:00) 13.6 13.06 (17:40) 8.33 (17:50) 0 0 0 0 0

Gráficas

Temp. máximas Temp. mínimas Temp. medias Precipitaciones Rachas de viento máximas Velocidades máximas media en intervalos de 10 minutos

Datos horarios

Fecha y hora oficial Temperatura (ºC) Velocidad del viento (km/h) Dirección del viento Racha (km/h) Dirección de racha Precipitación (mm) Presión (hPa) Tendencia (hPa) Humedad (%)
2018-11-16 23:00:00 8.1 2 Nordeste 5 Sudeste 0 -- -- 91
2018-11-16 22:00:00 8.7 2 Oeste 9 Nordeste 0 -- -- 92
2018-11-16 21:00:00 9.4 3 Este 11 Norte 0 -- -- 91
2018-11-16 20:00:00 9.6 8 Nordeste 13 Nordeste 0 -- -- 91
2018-11-16 19:00:00 10.9 5 Este 12 Nordeste 0 -- -- 87
2018-11-16 18:00:00 13.2 6 Sudeste 14 Sudeste 0 -- -- 80
2018-11-16 17:00:00 14.1 6 Sur 26 Sudeste 0.4 -- -- 80
2018-11-16 16:00:00 16.1 9 Sur 16 Sur 0 -- -- 64
2018-11-16 15:00:00 16.6 8 Sudeste 15 Este 0 -- -- 64
2018-11-16 14:00:00 16.3 8 Este 16 Este 0 -- -- 67
2018-11-16 13:00:00 16.3 4 Este 14 Sudeste 0 -- -- 67
2018-11-16 12:00:00 13.7 3 Sudeste 11 Sudoeste 0 -- -- 77
2018-11-16 11:00:00 11.3 7 Este 12 Este 0 -- -- 96
2018-11-16 10:00:00 9.1 5 Nordeste 11 Nordeste 0 -- -- 98
2018-11-16 09:00:00 8 9 Este 15 Este 0 -- -- 97
2018-11-16 08:00:00 7 7 Nordeste 11 Este 0 -- -- 97
2018-11-16 07:00:00 7.2 5 Este 15 Este 0 -- -- 97
2018-11-16 06:00:00 7.4 5 Este 12 Nordeste 0 -- -- 96
2018-11-16 05:00:00 8.5 3 Nordeste 10 Este 0 -- -- 96
2018-11-16 04:00:00 8.9 3 Nordeste 7 Nordeste 0 -- -- 96
2018-11-16 03:00:00 8.6 2 Este 8 Nordeste 0 -- -- 96
2018-11-16 02:00:00 7.4 2 Norte 9 Este 0 -- -- 95
2018-11-16 01:00:00 7.6 0 Calma 6 Nordeste 0 -- -- 94
2018-11-16 00:00:00 8.4 5 Nordeste 8 Nordeste 0 -- -- 94
2018-11-15 23:00:00 8.2 5 Nordeste 11 Nordeste 0 -- -- 93
2018-11-15 22:00:00 9.1 7 Nordeste 13 Nordeste 0 -- -- 93
2018-11-15 21:00:00 9.3 5 Nordeste 11 Nordeste 0 -- -- 90
2018-11-15 20:00:00 10.3 6 Nordeste 10 Nordeste 0 -- -- 88
2018-11-15 19:00:00 11.4 3 Nordeste 11 Sudeste 0 -- -- 78
2018-11-15 18:00:00 14.4 5 Sudeste 8 Sudeste 0 -- -- 70
2018-11-15 17:00:00 15.9 0 Calma 6 Noroeste 0 -- -- 67
2018-11-15 16:00:00 16.8 2 Oeste 8 Este 0 -- -- 61
2018-11-15 15:00:00 16.7 4 Sudeste 11 Este 0 -- -- 60
2018-11-15 14:00:00 15.5 3 Norte 10 Nordeste 0 -- -- 69
2018-11-15 13:00:00 14.1 5 Nordeste 13 Nordeste 0 -- -- 76
2018-11-15 12:00:00 10.8 5 Este 9 Este 0 -- -- 90
2018-11-15 11:00:00 8.8 0 Calma 7 Nordeste 0 -- -- 95
2018-11-15 10:00:00 7.9 7 Este 13 Este 0 -- -- 96
2018-11-15 09:00:00 6.8 3 Este 10 Nordeste 0 -- -- 96
2018-11-15 08:00:00 5.6 3 Nordeste 8 Nordeste 0 -- -- 94
2018-11-15 07:00:00 6.2 4 Nordeste 8 Nordeste 0 -- -- 93
2018-11-15 06:00:00 7.6 2 Nordeste 5 Nordeste 0 -- -- 93
2018-11-15 05:00:00 7.9 2 Nordeste 6 Este 0 -- -- 92
2018-11-15 04:00:00 8.4 0 Calma 12 Nordeste 0 -- -- 90
2018-11-15 03:00:00 9.6 5 Nordeste 12 Sudeste 0 -- -- 90
2018-11-15 02:00:00 9.2 2 Este 18 Sudeste 0 -- -- 89
2018-11-15 01:00:00 10.5 8 Sudeste 22 Sudeste 0 -- -- 86
2018-11-15 00:00:00 10.3 8 Sudeste 27 Sudeste 0 -- -- 86
2018-11-14 23:00:00 9.9 9 Sudeste 19 Sudeste 0 -- -- 91
2018-11-14 22:00:00 8.9 6 Nordeste 13 Nordeste 0 -- -- 93
2018-11-14 21:00:00 8.7 6 Nordeste 11 Nordeste 0 -- -- 92
2018-11-14 20:00:00 9.1 4 Nordeste 9 Nordeste 0 -- -- 91
2018-11-14 19:00:00 10.1 2 Este 4 Este 0 -- -- 88
2018-11-14 18:00:00 12.8 0 Calma 8 Noroeste 0 -- -- 80
2018-11-14 17:00:00 13.6 4 Noroeste 7 Noroeste 0 -- -- 78
2018-11-14 16:00:00 14.4 3 Oeste 11 Noroeste 0 -- -- 75
2018-11-14 15:00:00 15 7 Noroeste 13 Noroeste 0 -- -- 73
2018-11-14 14:00:00 14.8 4 Noroeste 13 Oeste 0 -- -- 73
2018-11-14 13:00:00 13 2 Sur 7 Nordeste 0 -- -- 78
2018-11-14 12:00:00 11.3 5 Nordeste 11 Nordeste 0 -- -- 83
2018-11-14 11:00:00 9.4 8 Este 15 Este 0 -- -- 95
2018-11-14 10:00:00 7.2 5 Nordeste 11 Este 0 -- -- 97
2018-11-14 09:00:00 6.9 5 Este 10 Nordeste 0 -- -- 96
2018-11-14 08:00:00 7.5 9 Este 14 Este 0 -- -- 97
2018-11-14 07:00:00 7.5 7 Este 12 Este 0 -- -- 97
2018-11-14 06:00:00 7.1 3 Nordeste 7 Nordeste 0 -- -- 97
2018-11-14 05:00:00 6.7 0 Calma 9 Nordeste 0 -- -- 97
2018-11-14 04:00:00 7 3 Este 14 Este 0 -- -- 97
2018-11-14 03:00:00 7.8 8 Este 12 Este 0 -- -- 96
2018-11-14 02:00:00 7.9 4 Este 10 Este 0 -- -- 96
2018-11-14 01:00:00 7.3 4 Nordeste 12 Este 0 -- -- 96
2018-11-14 00:00:00 7.2 4 Nordeste 9 Este 0 -- -- 96
2018-11-13 23:00:00 6.5 3 Este 8 Este 0 -- -- 95
2018-11-13 22:00:00 7 6 Nordeste 13 Nordeste 0 -- -- 94
2018-11-13 21:00:00 7.5 8 Nordeste 13 Nordeste 0 -- -- 93
2018-11-13 20:00:00 8.5 7 Nordeste 14 Nordeste 0 -- -- 90
2018-11-13 19:00:00 10.1 8 Nordeste 14 Este 0 -- -- 87
2018-11-13 18:00:00 12.7 6 Este 14 Este 0 -- -- 78
2018-11-13 17:00:00 14.9 5 Este 12 Norte 0 -- -- 71
2018-11-13 16:00:00 15 7 Nordeste 14 Nordeste 0.2 -- -- 69
2018-11-13 15:00:00 14.9 7 Nordeste 16 Este 0 -- -- 72
2018-11-13 14:00:00 14.3 8 Este 19 Este 0 -- -- 71
2018-11-13 13:00:00 12.8 7 Este 20 Nordeste 0 -- -- 79
2018-11-13 12:00:00 10.9 15 Este 24 Este 0 -- -- 87
2018-11-13 11:00:00 10 10 Nordeste 24 Este 0 -- -- 89
2018-11-13 10:00:00 9.1 8 Nordeste 14 Nordeste 0 -- -- 90
2018-11-13 09:00:00 8.4 5 Nordeste 22 Este 0 -- -- 92
2018-11-13 08:00:00 8.3 6 Nordeste 18 Nordeste 0 -- -- 92
2018-11-13 07:00:00 8.6 9 Nordeste 17 Nordeste 0 -- -- 92
2018-11-13 06:00:00 8.5 6 Nordeste 18 Nordeste 0 -- -- 94
2018-11-13 05:00:00 8.5 8 Nordeste 18 Nordeste 0 -- -- 93
2018-11-13 04:00:00 8.5 11 Nordeste 20 Nordeste 0 -- -- 93
2018-11-13 03:00:00 8.2 4 Nordeste 15 Nordeste 0 -- -- 93
2018-11-13 02:00:00 8.4 9 Nordeste 18 Nordeste 0 -- -- 94
2018-11-13 01:00:00 8.4 6 Nordeste 13 Nordeste 0 -- -- 96
2018-11-13 00:00:00 7.7 2 Norte 8 Este 0 -- -- 95
2018-11-12 23:00:00 8.8 4 Este 7 Este 0.2 -- -- 95
2018-11-12 22:00:00 8.8 0 Calma 4 Este 0 -- -- 95
2018-11-12 21:00:00 9 0 Calma 7 Este 0.2 -- -- 95
2018-11-12 20:00:00 9 5 Este 8 Este 0.2 -- -- 94
2018-11-12 19:00:00 9.1 0 Calma 7 Noroeste 1.2 -- -- 94
2018-11-12 18:00:00 9.4 0 Calma 8 Nordeste 0.2 -- -- 93
2018-11-12 17:00:00 9.6 4 Norte 14 Noroeste 0.6 -- -- 93
2018-11-12 16:00:00 10.1 10 Noroeste 13 Noroeste 0.4 -- -- 90
2018-11-12 15:00:00 10.9 6 Noroeste 9 Norte 0 -- -- 86
2018-11-12 14:00:00 11.1 8 Noroeste 14 Noroeste 0 -- -- 85
2018-11-12 13:00:00 10.9 4 Sudoeste 12 Sudoeste 0 -- -- 85
2018-11-12 12:00:00 10.2 4 Sur 8 Sur 0 -- -- 85
2018-11-12 11:00:00 9.5 3 Sur 13 Sur 0 -- -- 86
2018-11-12 10:00:00 9.1 6 Sudoeste 10 Sur 0 -- -- 89
2018-11-12 09:00:00 8.4 3 Sudoeste 10 Oeste 0 -- -- 91
2018-11-12 08:00:00 8.5 4 Sudoeste 13 Sudoeste 0 -- -- 91
2018-11-12 07:00:00 8.5 6 Sudoeste 13 Sudoeste 0 -- -- 93
2018-11-12 06:00:00 8.3 5 Sudoeste 10 Sudoeste 0.4 -- -- 93
2018-11-12 05:00:00 8.2 0 Calma 8 Sudoeste 0.4 -- -- 93
2018-11-12 04:00:00 8.3 3 Sur 13 Oeste 0.2 -- -- 92
2018-11-12 03:00:00 8 4 Sur 16 Sudeste 0.2 -- -- 93
2018-11-12 02:00:00 7.6 6 Este 10 Este 0 -- -- 94
2018-11-12 01:00:00 7.9 2 Este 5 Oeste 0.4 -- -- 93
2018-11-12 00:00:00 8 2 Oeste 19 Noroeste 1.2 -- -- 92
2018-11-11 23:00:00 8.7 6 Noroeste 12 Noroeste 0 -- -- 91
2018-11-11 22:00:00 8.8 6 Nordeste 13 Nordeste 0 -- -- 92
2018-11-11 21:00:00 9 3 Sudeste 10 Sudoeste 0.2 -- -- 91
2018-11-11 20:00:00 9.2 6 Oeste 21 Oeste 0.4 -- -- 90
2018-11-11 19:00:00 10.4 11 Oeste 22 Sudoeste 0.2 -- -- 88
2018-11-11 18:00:00 12.2 12 Sur 27 Sudeste 0 -- -- 82
2018-11-11 17:00:00 12.4 16 Sur 35 Sur 0 -- -- 82
2018-11-11 16:00:00 12.4 16 Sur 34 Sur 0.6 -- -- 84
2018-11-11 15:00:00 13.1 15 Sur 30 Sur 0.4 -- -- 81
2018-11-11 14:00:00 12.8 9 Sur 30 Sudoeste 0.4 -- -- 81
2018-11-11 13:00:00 13.6 17 Sudoeste 35 Sur 0 -- -- 73
2018-11-11 12:00:00 13.4 18 Sudoeste 44 Sur 0 -- -- 75
2018-11-11 11:00:00 12.7 21 Sudoeste 41 Sudoeste 0 -- -- 79
2018-11-11 10:00:00 12.2 17 Sudoeste 34 Sudoeste 0 -- -- 81
2018-11-11 09:00:00 11.2 15 Sudoeste 35 Sudoeste 0 -- -- 84
2018-11-11 08:00:00 10.4 13 Sudoeste 33 Sudoeste 0 -- -- 83
2018-11-11 07:00:00 10.2 10 Sudoeste 33 Sudoeste 0 -- -- 84
2018-11-11 06:00:00 10.5 20 Sudoeste 34 Sudoeste 0 -- -- 81
2018-11-11 05:00:00 10 15 Sudoeste 35 Sudoeste 0 -- -- 84
2018-11-11 04:00:00 10.4 20 Sudoeste 36 Sudoeste 0 -- -- 81
2018-11-11 03:00:00 9.9 16 Sur 36 Sur 0 -- -- 80
2018-11-11 02:00:00 10.2 15 Sudoeste 29 Sudoeste 0 -- -- 76
2018-11-11 01:00:00 10.2 18 Sudoeste 42 Sudoeste 0 -- -- 78
2018-11-11 00:00:00 10.1 23 Sudoeste 36 Sudoeste 0 -- -- 82
2018-11-10 23:00:00 10.4 19 Sudoeste 37 Sudoeste 0 -- -- 80
2018-11-10 22:00:00 10.9 23 Sudoeste 36 Sudoeste 0 -- -- 82
2018-11-10 21:00:00 11.3 27 Sudoeste 42 Sudoeste 0 -- -- 81
2018-11-10 20:00:00 11.2 18 Sudoeste 46 Sudoeste 0 -- -- 82
2018-11-10 19:00:00 11.6 23 Sudoeste 45 Sudoeste 0 -- -- 80
2018-11-10 18:00:00 12.2 27 Sudoeste 61 Sudoeste 0 -- -- 76
2018-11-10 17:00:00 13.3 31 Sudoeste 57 Sudoeste 0 -- -- 75
2018-11-10 16:00:00 13.4 30 Sudoeste 49 Sudoeste 0 -- -- 77
2018-11-10 15:00:00 12 22 Sudoeste 46 Oeste 0 -- -- 85
2018-11-10 14:00:00 11.7 23 Sudoeste 40 Sur 0.6 -- -- 89
2018-11-10 13:00:00 11.8 18 Sudoeste 39 Sudoeste 0 -- -- 88
2018-11-10 12:00:00 12.5 24 Sudoeste 45 Sudoeste 0.2 -- -- 85
2018-11-10 11:00:00 12.1 27 Sudoeste 44 Sudoeste 0.2 -- -- 86
2018-11-10 10:00:00 11.5 28 Sudoeste 60 Oeste 0 -- -- 87
2018-11-10 09:00:00 10.9 24 Sudoeste 54 Sudoeste 0 -- -- 88
2018-11-10 08:00:00 11.2 33 Sudoeste 56 Sudoeste 0 -- -- 85
2018-11-10 07:00:00 11 28 Sudoeste 51 Sudoeste 0 -- -- 84
2018-11-10 06:00:00 11 26 Sudoeste 48 Sudoeste 0 -- -- 83
2018-11-10 05:00:00 10.4 23 Sudoeste 49 Sudoeste 0 -- -- 87
2018-11-10 04:00:00 10.4 24 Sudoeste 48 Sudoeste 0 -- -- 86
2018-11-10 03:00:00 10.2 19 Sudoeste 50 Sudoeste 0 -- -- 85
2018-11-10 02:00:00 9.7 22 Sudoeste 40 Sudoeste 0 -- -- 88
2018-11-10 01:00:00 9.7 23 Sudoeste 47 Sur 0 -- -- 87
2018-11-10 00:00:00 9 22 Sudoeste 41 Sudoeste 0 -- -- 91
2018-11-09 23:00:00 8.5 21 Sudoeste 35 Sudoeste 0 -- -- 90
2018-11-09 22:00:00 8.1 18 Sudoeste 35 Sudoeste 0 -- -- 88
2018-11-09 21:00:00 7.8 14 Sudoeste 36 Sudoeste 0 -- -- 90
2018-11-09 20:00:00 7.6 16 Sudoeste 34 Sudoeste 0 -- -- 91
2018-11-09 19:00:00 7.7 13 Sudoeste 28 Sudoeste 0 -- -- 89
2018-11-09 18:00:00 7.9 17 Sudoeste 32 Sudoeste 0 -- -- 86
2018-11-09 17:00:00 8 14 Sudoeste 35 Sudoeste 0 -- -- 86
2018-11-09 16:00:00 8.8 20 Sudoeste 36 Sudoeste 0 -- -- 75
2018-11-09 15:00:00 8.5 22 Sudoeste 37 Sudoeste 0 -- -- 74
2018-11-09 14:00:00 7.8 18 Sudoeste 39 Sudoeste 0 -- -- 77
2018-11-09 13:00:00 8 16 Oeste 31 Oeste 0 -- -- 77
2018-11-09 12:00:00 6.3 18 Oeste 30 Oeste 0.2 -- -- 83
2018-11-09 11:00:00 5.8 12 Sudoeste 22 Sudoeste 0 -- -- 86
2018-11-09 10:00:00 4.2 13 Sudoeste 25 Oeste 0 -- -- 92
2018-11-09 09:00:00 4 10 Sudoeste 19 Sudoeste 0 -- -- 92
2018-11-09 08:00:00 4.2 9 Sudoeste 17 Sudoeste 0 -- -- 91
2018-11-09 07:00:00 4.3 6 Sudoeste 13 Oeste 0 -- -- 92
2018-11-09 06:00:00 4.4 6 Sudoeste 19 Oeste 0 -- -- 91
2018-11-09 05:00:00 4.7 9 Oeste 23 Sudoeste 0 -- -- 90
2018-11-09 04:00:00 4.7 14 Oeste 27 Oeste 0 -- -- 91
2018-11-09 03:00:00 4.8 12 Oeste 29 Sudoeste 0 -- -- 91
2018-11-09 02:00:00 5.2 14 Sudoeste 25 Sudoeste 0 -- -- 89
2018-11-09 01:00:00 6 14 Oeste 30 Sudoeste 0 -- -- 89
2018-11-09 00:00:00 6.2 13 Sudoeste 23 Sudoeste 0 -- -- 90
2018-11-08 23:00:00 6.2 9 Sudoeste 28 Sur 0 -- -- 88
2018-11-08 22:00:00 6.8 14 Sudoeste 31 Sudoeste 0 -- -- 84
2018-11-08 21:00:00 7 12 Sudoeste 32 Oeste 0.4 -- -- 88
2018-11-08 20:00:00 7.8 9 Sudoeste 26 Sudoeste 2.8 -- -- 92
2018-11-08 19:00:00 7.9 7 Sudoeste 36 Oeste 2.6 -- -- 89
2018-11-08 18:00:00 10.2 17 Oeste 33 Sudoeste 0 -- -- 79
2018-11-08 17:00:00 11.7 11 Sur 30 Sur 0 -- -- 69
2018-11-08 16:00:00 11.7 10 Sur 23 Sur 0 -- -- 69
2018-11-08 15:00:00 11.5 15 Sudoeste 27 Sudoeste 0 -- -- 69
2018-11-08 14:00:00 11.3 15 Sudoeste 33 Sudoeste 0 -- -- 68
2018-11-08 13:00:00 11.2 17 Sur 33 Sudoeste 0 -- -- 68
2018-11-08 12:00:00 9.5 15 Sur 31 Sur 0 -- -- 73
2018-11-08 11:00:00 8.2 9 Sur 24 Sudeste 0 -- -- 78
2018-11-08 10:00:00 7.1 10 Sur 23 Sur 0 -- -- 79
2018-11-08 09:00:00 5.9 10 Sur 21 Sudeste 0 -- -- 81
2018-11-08 08:00:00 4.9 6 Sur 14 Sudeste 0 -- -- 85
2018-11-08 07:00:00 4.4 5 Sur 12 Sur 0 -- -- 87
2018-11-08 06:00:00 4.2 0 Calma 8 Este 0 -- -- 86
2018-11-08 05:00:00 4.3 7 Sudeste 14 Sudeste 0 -- -- 84
2018-11-08 04:00:00 4.2 3 Este 16 Sudeste 0 -- -- 83
2018-11-08 03:00:00 4 6 Sur 14 Sudeste 0 -- -- 87
2018-11-08 02:00:00 1.4 2 Este 5 Este 0 -- -- 93
2018-11-08 01:00:00 1 4 Nordeste 6 Nordeste 0 -- -- 92
2018-11-08 00:00:00 1.3 0 Calma 4 Nordeste 0 -- -- 90
2018-11-07 23:00:00 2.7 0 Calma 6 Sudoeste 0 -- -- 86
2018-11-07 22:00:00 4.3 6 Sudoeste 12 Sudoeste 0 -- -- 84
2018-11-07 21:00:00 2.3 0 Calma 5 Sudoeste 0 -- -- 88
2018-11-07 20:00:00 3.3 2 Nordeste 4 Nordeste 0 -- -- 84
2018-11-07 19:00:00 6.3 2 Sur 7 Sudoeste 0 -- -- 74
2018-11-07 18:00:00 9.1 5 Sudoeste 22 Oeste 0 -- -- 66
2018-11-07 17:00:00 10.9 13 Oeste 35 Oeste 0 -- -- 57
2018-11-07 16:00:00 11.2 19 Oeste 42 Oeste 0.2 -- -- 58
2018-11-07 15:00:00 12 21 Sudoeste 38 Sudoeste 0 -- -- 56
2018-11-07 14:00:00 10.8 23 Oeste 46 Oeste 0 -- -- 61
2018-11-07 13:00:00 11.7 22 Oeste 40 Oeste 0 -- -- 65
2018-11-07 12:00:00 10.6 23 Oeste 45 Oeste 0 -- -- 71
2018-11-07 11:00:00 9.9 23 Sudoeste 39 Sudoeste 0 -- -- 75
2018-11-07 10:00:00 8.9 16 Sudoeste 35 Oeste 0 -- -- 87
2018-11-07 09:00:00 8.3 18 Sudoeste 29 Sudoeste 0 -- -- 88
2018-11-07 08:00:00 7.9 16 Sudoeste 36 Sudoeste 0.6 -- -- 90
2018-11-07 07:00:00 8.4 21 Sudoeste 36 Sudoeste 0.2 -- -- 85
2018-11-07 06:00:00 8.2 13 Sudoeste 43 Sudoeste 0.4 -- -- 91
2018-11-07 05:00:00 8.6 23 Sudoeste 47 Sur 0.2 -- -- 87
2018-11-07 04:00:00 9.3 23 Sudoeste 44 Sudoeste 0 -- -- 80
2018-11-07 03:00:00 9 19 Sur 40 Sur 0 -- -- 80
2018-11-07 02:00:00 9.1 21 Sudoeste 38 Sur 0 -- -- 79
2018-11-07 01:00:00 8.9 21 Sudoeste 44 Sudoeste 0 -- -- 81
2018-11-07 00:00:00 9 23 Sudoeste 54 Sudoeste 0 -- -- 83
2018-11-06 23:00:00 8.8 23 Sudoeste 43 Sudoeste 0 -- -- 86
2018-11-06 22:00:00 8.6 24 Sudoeste 42 Sur 0.2 -- -- 87
2018-11-06 21:00:00 8.1 18 Sudoeste 32 Sudoeste 0.6 -- -- 91
2018-11-06 20:00:00 8 19 Sudoeste 31 Sudoeste 0.2 -- -- 90
2018-11-06 19:00:00 7.9 15 Sudoeste 36 Sudoeste 0.2 -- -- 89
2018-11-06 18:00:00 7.7 13 Sudoeste 27 Sur 0 -- -- 91
2018-11-06 17:00:00 7.6 9 Sudoeste 24 Sudoeste 0 -- -- 93
2018-11-06 16:00:00 7.7 14 Sudoeste 30 Sudoeste 0 -- -- 90
2018-11-06 15:00:00 7.4 13 Sudoeste 32 Sudoeste 0.2 -- -- 90
2018-11-06 14:00:00 7.2 14 Sudoeste 34 Sudoeste 0.8 -- -- 90
2018-11-06 13:00:00 7.3 20 Sudoeste 39 Oeste 0.2 -- -- 88
2018-11-06 12:00:00 8.3 21 Oeste 40 Sudoeste 0 -- -- 77
2018-11-06 11:00:00 7.9 23 Sudoeste 41 Sudoeste 0 -- -- 79
2018-11-06 10:00:00 7.3 21 Sudoeste 37 Sudoeste 0 -- -- 82
2018-11-06 09:00:00 5.3 19 Sudoeste 36 Sudoeste 0 -- -- 88
2018-11-06 08:00:00 5.1 21 Sudoeste 40 Sudoeste 0 -- -- 88
2018-11-06 07:00:00 5.1 20 Sudoeste 32 Oeste 0 -- -- 87
2018-11-06 06:00:00 5 15 Sudoeste 36 Oeste 0 -- -- 85
2018-11-06 05:00:00 5.1 20 Sudoeste 42 Oeste 0 -- -- 80
2018-11-06 04:00:00 5.4 18 Oeste 41 Oeste 0 -- -- 78
2018-11-06 03:00:00 5.8 19 Oeste 40 Oeste 0 -- -- 80
2018-11-06 02:00:00 6.2 22 Oeste 49 Oeste 0.2 -- -- 82
2018-11-06 01:00:00 6.3 21 Oeste 40 Oeste 0 -- -- 85
2018-11-06 00:00:00 6.3 22 Sudoeste 37 Oeste 0 -- -- 87
2018-11-05 23:00:00 6.1 18 Sudoeste 33 Sudoeste 0 -- -- 89
2018-11-05 22:00:00 5.5 13 Sudoeste 26 Sudoeste 0.2 -- -- 91
2018-11-05 21:00:00 5.8 13 Oeste 30 Oeste 0.2 -- -- 87
2018-11-05 20:00:00 6.3 13 Oeste 22 Oeste 0 -- -- 84
2018-11-05 19:00:00 6.7 13 Sudoeste 21 Sudoeste 0 -- -- 84
2018-11-05 18:00:00 7.4 10 Sudoeste 26 Sudoeste 0 -- -- 83
2018-11-05 17:00:00 8.7 13 Sudoeste 25 Sudoeste 0 -- -- 74
2018-11-05 16:00:00 8.2 10 Sudoeste 29 Sudoeste 0 -- -- 78
2018-11-05 15:00:00 8.9 12 Sudoeste 27 Sudoeste 0 -- -- 74
2018-11-05 14:00:00 9.3 12 Sudoeste 22 Sudoeste 0.8 -- -- 75
2018-11-05 13:00:00 8.1 11 Oeste 23 Sudoeste 0 -- -- 77
2018-11-05 12:00:00 7.4 12 Sudoeste 24 Oeste 0 -- -- 81
2018-11-05 11:00:00 6.9 11 Sudoeste 24 Sudoeste 0 -- -- 87
2018-11-05 10:00:00 6.6 8 Sudoeste 17 Sudoeste 0 -- -- 91
2018-11-05 09:00:00 6.5 8 Sudoeste 16 Sur 0.6 -- -- 89
2018-11-05 08:00:00 6.6 4 Sudoeste 17 Sudoeste 0 -- -- 90
2018-11-05 07:00:00 6.8 8 Sudoeste 20 Oeste 0.2 -- -- 88
2018-11-05 06:00:00 7.5 10 Sudoeste 23 Sur 1 -- -- 87
2018-11-05 05:00:00 8.2 11 Sur 23 Sur 1 -- -- 90
2018-11-05 04:00:00 8 10 Sur 29 Sur 2.2 -- -- 90
2018-11-05 03:00:00 8.1 12 Sur 28 Sur 1.2 -- -- 89
2018-11-05 02:00:00 7.9 9 Sudoeste 26 Sur 0.6 -- -- 89
2018-11-05 01:00:00 8 10 Sur 27 Sur 0.8 -- -- 87
2018-11-05 00:00:00 8.3 15 Sudoeste 32 Sudoeste 0.8 -- -- 87
2018-11-04 23:00:00 9.1 9 Sudoeste 14 Sudoeste 0 -- -- 87
2018-11-04 22:00:00 9.2 3 Sudeste 19 Oeste 0.2 -- -- 85
2018-11-04 21:00:00 10 9 Oeste 21 Oeste 0 -- -- 78
2018-11-04 20:00:00 10.5 11 Oeste 21 Oeste 0 -- -- 77
2018-11-04 19:00:00 11.3 0 Calma 6 Sudoeste 0 -- -- 72
2018-11-04 18:00:00 12.9 2 Sudoeste 18 Sudoeste 0 -- -- 59
2018-11-04 17:00:00 14.8 7 Sudoeste 15 Sudoeste 0 -- -- 51
2018-11-04 16:00:00 16.2 9 Sudoeste 22 Sudoeste 0 -- -- 43
2018-11-04 15:00:00 16.3 11 Sudoeste 26 Sudoeste 0 -- -- 38
2018-11-04 14:00:00 15.9 15 Sudoeste 24 Sudoeste 0 -- -- 35
2018-11-04 13:00:00 14.3 6 Sudoeste 14 Sudoeste 0 -- -- 49
2018-11-04 12:00:00 11.9 8 Sudoeste 14 Sudoeste 0 -- -- 57
2018-11-04 11:00:00 7.3 4 Oeste 9 Oeste 0 -- -- 79
2018-11-04 10:00:00 2.3 3 Este 8 Este 0 -- -- 95
2018-11-04 09:00:00 -0.7 2 Este 3 Este 0 -- -- 95
2018-11-04 08:00:00 -1.9 0 Calma 0 Calma 0 -- -- 93
2018-11-04 07:00:00 -1.7 0 Calma 0 Calma 0 -- -- 93
2018-11-04 06:00:00 -1.5 0 Calma -- -- 0 -- -- 93
2018-11-04 05:00:00 -1.6 0 Calma 2 Este 0 -- -- 92
2018-11-04 04:00:00 -1 0 Calma 3 Este 0 -- -- 92
2018-11-04 03:00:00 -0.6 2 Este 4 Este 0 -- -- 91
2018-11-04 02:00:00 0.1 3 Este 4 Este 0 -- -- 92
2018-11-04 01:00:00 0.3 0 Calma 2 Este 0 -- -- 89
2018-11-04 00:00:00 1.5 0 Calma 2 Oeste 0 -- -- 88
2018-11-03 23:00:00 3 0 Calma 5 Oeste 0 -- -- 85
2018-11-03 22:00:00 4 4 Oeste 6 Sudoeste 0 -- -- 80
2018-11-03 21:00:00 3.8 0 Calma 4 Este 0 -- -- 79
2018-11-03 20:00:00 5.7 4 Nordeste 5 Este 0 -- -- 70
2018-11-03 19:00:00 8.7 2 Oeste 5 Sudoeste 0 -- -- 62
2018-11-03 18:00:00 14.7 3 Sudoeste 9 Oeste 0 -- -- 42
2018-11-03 17:00:00 16.7 7 Oeste 14 Noroeste 0 -- -- 37
2018-11-03 16:00:00 16.2 6 Oeste 13 Noroeste 0 -- -- 37
2018-11-03 15:00:00 15.2 8 Noroeste 19 Noroeste 0 -- -- 45
2018-11-03 14:00:00 13.6 9 Noroeste 20 Sudoeste 0 -- -- 50
2018-11-03 13:00:00 11.8 7 Oeste 14 Noroeste 0 -- -- 61
2018-11-03 12:00:00 9.7 6 Noroeste 13 Noroeste 0 -- -- 69
2018-11-03 11:00:00 6.3 5 Sudoeste 9 Sudoeste 0 -- -- 89
2018-11-03 10:00:00 4.7 6 Sudoeste 11 Oeste 0 -- -- 90
2018-11-03 09:00:00 2.1 0 Calma 4 Nordeste 0 -- -- 96
2018-11-03 08:00:00 0.1 2 Nordeste 6 Este 0 -- -- 93
2018-11-03 07:00:00 1.7 0 Calma 5 Sudoeste 0 -- -- 92
2018-11-03 06:00:00 1.7 0 Calma 5 Oeste 0 -- -- 92
2018-11-03 05:00:00 2.5 0 Calma 17 Nordeste 0 -- -- 91
2018-11-03 04:00:00 3.3 8 Nordeste 15 Este 0 -- -- 90
2018-11-03 03:00:00 3.9 7 Nordeste 16 Este 0 -- -- 89
2018-11-03 02:00:00 5.2 9 Este 31 Este 0 -- -- 86
2018-11-03 01:00:00 6.9 18 Este 28 Este 0 -- -- 82
2018-11-03 00:00:00 7.1 6 Este 18 Este 0 -- -- 84
2018-11-02 23:00:00 6.8 8 Este 21 Este 0 -- -- 85
2018-11-02 22:00:00 6.9 8 Este 19 Nordeste 0 -- -- 85
2018-11-02 21:00:00 6.4 4 Nordeste 8 Nordeste 0 -- -- 86
2018-11-02 20:00:00 6.9 4 Nordeste 13 Este 0 -- -- 85
2018-11-02 19:00:00 8.9 6 Nordeste 18 Nordeste 0 -- -- 79
2018-11-02 18:00:00 11.4 9 Nordeste 26 Nordeste 0 -- -- 72
2018-11-02 17:00:00 13.6 12 Nordeste 24 Nordeste 0 -- -- 64
2018-11-02 16:00:00 15 13 Nordeste 25 Nordeste 0 -- -- 58
2018-11-02 15:00:00 15.2 13 Nordeste 27 Nordeste 0.2 -- -- 61
2018-11-02 14:00:00 14.8 14 Nordeste 32 Nordeste 0 -- -- 64
2018-11-02 13:00:00 14.4 12 Nordeste 25 Nordeste 0 -- -- 69
2018-11-02 12:00:00 13.4 10 Norte 18 Norte 0 -- -- 75
2018-11-02 11:00:00 12.3 5 Noroeste 12 Norte 0 -- -- 85
2018-11-02 10:00:00 10.2 4 Noroeste 10 Noroeste 0 -- -- 93
2018-11-02 09:00:00 9.4 5 Sudoeste 12 Sudoeste 0.4 -- -- 92
2018-11-02 08:00:00 9.4 6 Oeste 15 Oeste 0 -- -- 90
2018-11-02 07:00:00 9.4 7 Oeste 24 Oeste 0 -- -- 90
2018-11-02 06:00:00 9.2 14 Oeste 30 Sudoeste 0 -- -- 89
2018-11-02 05:00:00 9 15 Oeste 28 Oeste 0 -- -- 89
2018-11-02 04:00:00 8.8 10 Oeste 26 Oeste 0 -- -- 88
2018-11-02 03:00:00 8.6 15 Sudoeste 28 Oeste 0 -- -- 88
2018-11-02 02:00:00 8.4 16 Sudoeste 30 Oeste 0 -- -- 90
2018-11-02 01:00:00 8.6 14 Sudoeste 28 Oeste 0 -- -- 86
2018-11-02 00:00:00 9 15 Oeste 24 Oeste 0 -- -- 81
2018-11-01 23:00:00 9.3 11 Sudoeste 23 Sudoeste 0 -- -- 75
2018-11-01 22:00:00 9.4 14 Sudoeste 25 Sudoeste 0 -- -- 71
2018-11-01 21:00:00 9.4 11 Sudoeste 20 Sudoeste 0 -- -- 70
2018-11-01 20:00:00 9.1 8 Sudoeste 15 Sudoeste 0 -- -- 72
2018-11-01 19:00:00 9.2 6 Sudoeste 19 Sudoeste 0 -- -- 72
2018-11-01 18:00:00 9.6 9 Sudoeste 22 Oeste 0 -- -- 69
2018-11-01 17:00:00 9.9 11 Sudoeste 26 Oeste 0 -- -- 66
2018-11-01 16:00:00 10.4 12 Oeste 27 Oeste 0 -- -- 64
2018-11-01 15:00:00 11.4 12 Oeste 25 Sudoeste 0 -- -- 58
2018-11-01 14:00:00 11.4 12 Oeste 19 Noroeste 0 -- -- 60
2018-11-01 13:00:00 10.7 6 Oeste 13 Oeste 0 -- -- 69
2018-11-01 12:00:00 7.7 3 Sur 6 Sur 0 -- -- 83
2018-11-01 11:00:00 4.1 2 Oeste 11 Oeste 0 -- -- 92
2018-11-01 10:00:00 3.2 3 Oeste 11 Oeste 0 -- -- 94
2018-11-01 09:00:00 2.9 5 Oeste 13 Oeste 0 -- -- 91
2018-11-01 08:00:00 3.7 6 Sudoeste 11 Sudoeste 0 -- -- 91
2018-11-01 07:00:00 5 0 Calma 6 Este 0.2 -- -- 93
2018-11-01 06:00:00 4.9 0 Calma 7 Oeste 0 -- -- 93
2018-11-01 05:00:00 5.6 3 Oeste 9 Sudeste 0 -- -- 92
2018-11-01 04:00:00 4.9 4 Oeste 9 Sudeste 0 -- -- 94
2018-11-01 03:00:00 5.8 5 Sudeste 8 Sudeste 0 -- -- 93
2018-11-01 02:00:00 5.9 0 Calma 2 Oeste 0 -- -- 94
2018-11-01 01:00:00 5.8 0 Calma 0 Calma 0 -- -- 94
2018-11-01 00:00:00 5.9 0 Calma 2 Este 0 -- -- 93
2018-10-31 23:00:00 6.4 0 Calma 5 Sudeste 0 -- -- 93
2018-10-31 22:00:00 6.7 0 Calma 3 Sudoeste 0 -- -- 93
2018-10-31 21:00:00 6.7 0 Calma -- -- 0 -- -- 92
2018-10-31 20:00:00 7.1 3 Este 5 Este 0 -- -- 92
2018-10-31 19:00:00 7.5 0 Calma 9 Norte 0.6 -- -- 91
2018-10-31 18:00:00 7.8 8 Norte 15 Noroeste 0.6 -- -- 89
2018-10-31 17:00:00 8.6 5 Oeste 19 Noroeste 0 -- -- 84
2018-10-31 16:00:00 9.2 4 Oeste 13 Noroeste 0 -- -- 79
2018-10-31 15:00:00 9.2 9 Noroeste 16 Oeste 0 -- -- 80
2018-10-31 14:00:00 9.6 5 Noroeste 11 Noroeste 0 -- -- 81
2018-10-31 13:00:00 8.4 4 Noroeste 12 Noroeste 0 -- -- 86
2018-10-31 12:00:00 8.5 6 Noroeste 12 Noroeste 0 -- -- 88
2018-10-31 11:00:00 7.5 3 Nordeste 8 Nordeste 0 -- -- 91
2018-10-31 10:00:00 6.4 3 Este 11 Nordeste 0 -- -- 93
2018-10-31 09:00:00 5.9 5 Nordeste 10 Nordeste 0 -- -- 95
2018-10-31 08:00:00 5.5 4 Nordeste 8 Nordeste 0 -- -- 94
2018-10-31 07:00:00 5.5 3 Nordeste 6 Nordeste 0.2 -- -- 93
2018-10-31 06:00:00 5.6 2 Nordeste 6 Este 0 -- -- 92
2018-10-31 05:00:00 5.4 0 Calma 8 Nordeste 0 -- -- 92
2018-10-31 04:00:00 5.2 4 Este 9 Este 0 -- -- 93
2018-10-31 03:00:00 5 4 Nordeste 8 Este 0 -- -- 93
2018-10-31 02:00:00 4.4 2 Nordeste 10 Este 0 -- -- 92
2018-10-31 01:00:00 5.4 5 Nordeste 10 Nordeste 0 -- -- 90
2018-10-31 00:00:00 5.7 4 Nordeste 10 Nordeste 0 -- -- 90
2018-10-30 23:00:00 6 6 Nordeste 19 Este 0 -- -- 90
2018-10-30 22:00:00 5.8 8 Este 14 Este 0 -- -- 91
2018-10-30 21:00:00 6.3 8 Este 24 Este 0.6 -- -- 88
2018-10-30 20:00:00 6.8 13 Sudeste 24 Este 0 -- -- 85
2018-10-30 19:00:00 7 12 Este 21 Este 0 -- -- 83
2018-10-30 18:00:00 7.5 12 Sudeste 28 Sudeste 0 -- -- 83
2018-10-30 17:00:00 7.8 13 Sudeste 20 Sudeste 0.2 -- -- 86
2018-10-30 16:00:00 8.2 6 Sur 19 Sudeste 0.6 -- -- 82
2018-10-30 15:00:00 7.6 8 Sudeste 22 Sudeste 0.4 -- -- 85
2018-10-30 14:00:00 8.1 14 Sur 30 Sudeste 0 -- -- 82
2018-10-30 13:00:00 7.1 13 Sur 26 Sudeste 0.4 -- -- 87
2018-10-30 12:00:00 6.2 10 Sur 33 Sudeste 0 -- -- 87
2018-10-30 11:00:00 5.7 18 Sudeste 31 Sur 0 -- -- 87
2018-10-30 10:00:00 4.6 15 Sur 28 Sudeste 0.2 -- -- 88
2018-10-30 09:00:00 4 10 Sur 19 Sur 0.4 -- -- 88
2018-10-30 08:00:00 3.9 12 Sudoeste 22 Sudoeste 1.8 -- -- 88
2018-10-30 07:00:00 3.7 9 Sudoeste 22 Sudoeste 1.4 -- -- 89
2018-10-30 06:00:00 3.8 8 Sudoeste 26 Sudoeste 0.6 -- -- 86
2018-10-30 05:00:00 3.9 8 Sudoeste 20 Sudoeste 0 -- -- 85
2018-10-30 04:00:00 4.2 9 Sudoeste 29 Sudoeste 0 -- -- 80
2018-10-30 03:00:00 4.6 11 Sudoeste 21 Sudoeste 0 -- -- 70
2018-10-30 02:00:00 4.2 10 Sudoeste 20 Sudoeste 0 -- -- 70
2018-10-30 01:00:00 3.4 11 Sudoeste 18 Sudoeste 0 -- -- 74
2018-10-30 00:00:00 -0.1 0 Calma 6 Sudoeste 0 -- -- 84
2018-10-29 23:00:00 0.2 0 Calma 6 Sudoeste 0 -- -- 82
2018-10-29 22:00:00 1.1 2 Sudoeste 10 Sur 0 -- -- 80
2018-10-29 21:00:00 -0.7 2 Sudeste 5 Nordeste 0 -- -- 80
2018-10-29 20:00:00 1.7 4 Noroeste 14 Sur 0 -- -- 71
2018-10-29 19:00:00 4 3 Este 21 Noroeste 0 -- -- 65
2018-10-29 18:00:00 6.9 21 Noroeste 30 Noroeste 0 -- -- 53
2018-10-29 17:00:00 8.4 19 Noroeste 33 Norte 0 -- -- 48
2018-10-29 16:00:00 7.9 19 Noroeste 30 Noroeste 0 -- -- 46
2018-10-29 15:00:00 8.1 9 Noroeste 19 Norte 0 -- -- 46
2018-10-29 14:00:00 7.4 12 Noroeste 33 Noroeste 0 -- -- 46
2018-10-29 13:00:00 8 14 Noroeste 36 Noroeste 0 -- -- 46
2018-10-29 12:00:00 8.6 22 Noroeste 42 Noroeste 0 -- -- 48
2018-10-29 11:00:00 7 17 Noroeste 30 Noroeste 0 -- -- 54
2018-10-29 10:00:00 4.8 10 Noroeste 22 Noroeste 0 -- -- 65
2018-10-29 09:00:00 1.6 6 Noroeste 13 Noroeste 0 -- -- 77
2018-10-29 08:00:00 0.1 6 Oeste 18 Oeste 0 -- -- 80
2018-10-29 07:00:00 1.1 8 Oeste 19 Oeste 0 -- -- 78
2018-10-29 06:00:00 1 6 Oeste 19 Oeste 0 -- -- 80
2018-10-29 05:00:00 1.2 9 Oeste 19 Oeste 0 -- -- 80
2018-10-29 04:00:00 1.6 7 Sudoeste 13 Oeste 0 -- -- 79
2018-10-29 03:00:00 1.7 7 Oeste 15 Oeste 0 -- -- 79
2018-10-29 02:00:00 1.4 5 Oeste 12 Oeste 0 -- -- 81
2018-10-29 01:00:00 1 6 Sudoeste 14 Sudoeste 0 -- -- 82
2018-10-29 00:00:00 0.6 4 Oeste 10 Oeste 0 -- -- 88
2018-10-28 23:00:00 0.4 4 Sudoeste 9 Oeste 0 -- -- 87
2018-10-28 22:00:00 0.5 3 Noroeste 5 Noroeste 0 -- -- 87
2018-10-28 21:00:00 0.9 4 Norte 12 Norte 0 -- -- 86
2018-10-28 20:00:00 1.5 10 Norte 36 Norte 0 -- -- 83
2018-10-28 19:00:00 3.2 8 Nordeste 18 Nordeste 0 -- -- 73
2018-10-28 18:00:00 3.5 4 Nordeste 24 Nordeste 0 -- -- 71
2018-10-28 17:00:00 5.2 17 Nordeste 37 Norte 0 -- -- 67
2018-10-28 16:00:00 6.9 15 Norte 32 Norte 0 -- -- 53
2018-10-28 15:00:00 7.7 20 Norte 34 Norte 0 -- -- 48
2018-10-28 14:00:00 5.8 17 Nordeste 37 Norte 0 -- -- 60
2018-10-28 13:00:00 6.9 20 Norte 34 Norte 0 -- -- 54
2018-10-28 12:00:00 5.4 18 Norte 34 Nordeste 0 -- -- 62
2018-10-28 11:00:00 4.8 17 Nordeste 29 Norte 0 -- -- 70
2018-10-28 10:00:00 3.2 5 Norte 21 Nordeste 0.4 -- -- 88
2018-10-28 09:00:00 0.5 3 Oeste 6 Noroeste 0 -- -- 93
2018-10-28 08:00:00 -0.5 0 Calma 5 Sudoeste 0 -- -- 92
2018-10-28 07:00:00 -1.2 2 Sudoeste 4 Sudoeste 0 -- -- 92
2018-10-28 06:00:00 -2.8 2 Nordeste 3 Noroeste 0 -- -- 90
2018-10-28 05:00:00 -3.4 0 Calma 4 Noroeste 0 -- -- 88
2018-10-28 04:00:00 -2.1 2 Sur 4 Noroeste 0 -- -- 88
2018-10-28 03:00:00 -1.6 3 Noroeste 6 Noroeste 0 -- -- 83
2018-10-28 02:00:00 0.6 3 Sudeste 7 Noroeste 0 -- -- 81
2018-10-28 01:00:00 2.3 8 Nordeste 19 Norte 0 -- -- 77
2018-10-28 00:00:00 3.1 6 Nordeste 21 Nordeste 0 -- -- 75
2018-10-27 23:00:00 3.4 9 Nordeste 17 Nordeste 0 -- -- 74
2018-10-27 22:00:00 3.5 7 Nordeste 23 Nordeste 0 -- -- 75
2018-10-27 21:00:00 4.1 12 Nordeste 27 Nordeste 0 -- -- 72
2018-10-27 20:00:00 4.5 10 Nordeste 21 Nordeste 0 -- -- 69
2018-10-27 19:00:00 5.8 12 Nordeste 24 Nordeste 0 -- -- 62
2018-10-27 18:00:00 5.8 19 Noroeste 31 Noroeste 0 -- -- 71
2018-10-27 17:00:00 8.3 13 Norte 29 Norte 0 -- -- 56
2018-10-27 16:00:00 10.8 13 Norte 28 Nordeste 0 -- -- 44
2018-10-27 15:00:00 9.9 14 Nordeste 32 Nordeste 0 -- -- 50
2018-10-27 14:00:00 9.7 16 Nordeste 38 Nordeste 0 -- -- 55
2018-10-27 13:00:00 8.2 20 Nordeste 36 Nordeste 0 -- -- 64
2018-10-27 12:00:00 7.1 16 Nordeste 33 Nordeste 0 -- -- 67
2018-10-27 11:00:00 5.3 15 Nordeste 28 Nordeste 0 -- -- 77
2018-10-27 10:00:00 5.1 10 Nordeste 26 Nordeste 0 -- -- 81
2018-10-27 09:00:00 4.9 13 Nordeste 31 Nordeste 0 -- -- 83
2018-10-27 08:00:00 5.5 18 Nordeste 35 Nordeste 0 -- -- 81
2018-10-27 07:00:00 6 17 Nordeste 33 Nordeste 0.2 -- -- 81
2018-10-27 06:00:00 7.1 17 Nordeste 33 Nordeste 0 -- -- 78
2018-10-27 05:00:00 8.7 18 Nordeste 32 Norte 0 -- -- 76
2018-10-27 04:00:00 8.8 10 Nordeste 26 Este 0 -- -- 78
2018-10-27 03:00:00 8.1 8 Nordeste 23 Nordeste 0 -- -- 82
2018-10-27 02:00:00 8.7 13 Nordeste 33 Nordeste 0 -- -- 77
2018-10-27 01:00:00 10 18 Nordeste 32 Nordeste 0 -- -- 77
2018-10-27 00:00:00 10.4 11 Nordeste 21 Nordeste 0 -- -- 81
2018-10-26 23:00:00 10.1 8 Nordeste 15 Nordeste 0 -- -- 79
2018-10-26 22:00:00 10.7 8 Nordeste 23 Este 0 -- -- 77
2018-10-26 21:00:00 11.6 12 Nordeste 29 Nordeste 0 -- -- 74
2018-10-26 20:00:00 12.2 15 Nordeste 29 Nordeste 0 -- -- 73
2018-10-26 19:00:00 13.3 14 Nordeste 27 Nordeste 0 -- -- 69
2018-10-26 18:00:00 16.7 4 Norte 10 Noroeste 0 -- -- 46
2018-10-26 17:00:00 17.2 6 Noroeste 11 Noroeste 0 -- -- 43
2018-10-26 16:00:00 17.2 3 Noroeste 9 Noroeste 0 -- -- 43
2018-10-26 15:00:00 16.8 3 Oeste 10 Noroeste 0 -- -- 42
2018-10-26 14:00:00 14.7 0 Calma 4 Noroeste 0 -- -- 48
2018-10-26 13:00:00 11.5 0 Calma 3 Noroeste 0 -- -- 55
2018-10-26 12:00:00 9.1 2 Sudoeste 3 Sudoeste 0 -- -- 63
2018-10-26 11:00:00 6.7 0 Calma 4 Sudeste 0 -- -- 71
2018-10-26 10:00:00 4.3 0 Calma 3 Oeste 0 -- -- 79
2018-10-26 09:00:00 2.7 0 Calma 4 Oeste 0 -- -- 83
2018-10-26 08:00:00 2.9 0 Calma 4 Nordeste 0 -- -- 81
2018-10-26 07:00:00 2.6 0 Calma 2 Nordeste 0 -- -- 83
2018-10-26 06:00:00 2.1 0 Calma 3 Este 0 -- -- 83
2018-10-26 05:00:00 2.6 0 Calma 2 Sudeste 0 -- -- 83
2018-10-26 04:00:00 2.8 0 Calma 3 Nordeste 0 -- -- 81
2018-10-26 03:00:00 3.1 0 Calma 3 Sudoeste 0 -- -- 78
2018-10-26 02:00:00 3.8 0 Calma 8 Este 0 -- -- 72
2018-10-26 01:00:00 3.9 0 Calma 3 Sudoeste 0 -- -- 75
2018-10-26 00:00:00 4.1 3 Este 5 Nordeste 0 -- -- 69
2018-10-25 23:00:00 5.5 0 Calma 4 Este 0 -- -- 66
2018-10-25 22:00:00 7.7 5 Este 7 Este 0 -- -- 57
2018-10-25 21:00:00 9.1 4 Este 5 Este 0 -- -- 54
2018-10-25 20:00:00 13.3 0 Calma 7 Oeste 0 -- -- 44
2018-10-25 19:00:00 19.7 6 Oeste 15 Oeste 0 -- -- 30
2018-10-25 18:00:00 22.2 9 Oeste 17 Oeste 0 -- -- 26
2018-10-25 17:00:00 22.9 8 Oeste 16 Oeste 0 -- -- 26
2018-10-25 16:00:00 21.9 6 Noroeste 15 Oeste 0 -- -- 29
2018-10-25 15:00:00 21.1 5 Sudoeste 15 Sudoeste 0 -- -- 34
2018-10-25 14:00:00 19.6 5 Sudoeste 13 Sudoeste 0 -- -- 35
2018-10-25 13:00:00 17 3 Sudoeste 8 Sudoeste 0 -- -- 45
2018-10-25 12:00:00 13.7 3 Sudoeste 5 Sudoeste 0 -- -- 53
2018-10-25 11:00:00 9.8 0 Calma 5 Sudoeste 0 -- -- 63
2018-10-25 10:00:00 3.7 3 Este 7 Este 0 -- -- 83
2018-10-25 09:00:00 -1.5 3 Este 4 Nordeste 0 -- -- 86
2018-10-25 08:00:00 -1 2 Este 3 Este 0 -- -- 83
2018-10-25 07:00:00 0.3 0 Calma 4 Este 0 -- -- 79
2018-10-25 06:00:00 2.2 0 Calma 6 Nordeste 0 -- -- 71
2018-10-25 05:00:00 1.9 3 Nordeste 4 Este 0 -- -- 73
2018-10-25 04:00:00 3.5 0 Calma 6 Nordeste 0 -- -- 71
2018-10-25 03:00:00 4.9 4 Nordeste 9 Nordeste 0 -- -- 62
2018-10-25 02:00:00 6 5 Norte 12 Este 0 -- -- 60
2018-10-25 01:00:00 4.6 0 Calma 5 Noroeste 0 -- -- 70
2018-10-25 00:00:00 4.6 0 Calma 3 Oeste 0 -- -- 75
2018-10-24 23:00:00 6.6 2 Noroeste 9 Nordeste 0 -- -- 65
2018-10-24 22:00:00 8.1 6 Norte 8 Norte 0 -- -- 57
2018-10-24 21:00:00 11.8 3 Nordeste 15 Este 0 -- -- 48
2018-10-24 20:00:00 14.1 9 Este 21 Este 0 -- -- 40
2018-10-24 19:00:00 17.9 15 Este 31 Este 0 -- -- 32
2018-10-24 18:00:00 19.7 19 Nordeste 35 Nordeste 0 -- -- 31
2018-10-24 17:00:00 20.5 19 Nordeste 37 Este 0 -- -- 27
2018-10-24 16:00:00 20.9 19 Nordeste 40 Nordeste 0 -- -- 26
2018-10-24 15:00:00 20.7 20 Nordeste 42 Este 0 -- -- 25
2018-10-24 14:00:00 20.3 26 Nordeste 40 Nordeste 0 -- -- 24
2018-10-24 13:00:00 19.2 18 Nordeste 36 Este 0 -- -- 30
2018-10-24 12:00:00 15.1 12 Nordeste 21 Nordeste 0 -- -- 45
2018-10-24 11:00:00 8.8 0 Calma 5 Sudoeste 0 -- -- 71
2018-10-24 10:00:00 2.6 0 Calma 4 Sudoeste 0 -- -- 95
2018-10-24 09:00:00 -0.3 2 Sudeste 5 Nordeste 0 -- -- 90
2018-10-24 08:00:00 1.1 4 Este 5 Este 0 -- -- 89
2018-10-24 07:00:00 2.2 4 Norte 6 Nordeste 0 -- -- 88
2018-10-24 06:00:00 3.4 3 Norte 11 Este 0 -- -- 86
2018-10-24 05:00:00 5.1 4 Este 12 Este 0 -- -- 82
2018-10-24 04:00:00 4.1 4 Norte 9 Norte 0 -- -- 84
2018-10-24 03:00:00 4.5 2 Noroeste 8 Nordeste 0 -- -- 81
2018-10-24 02:00:00 6.4 3 Nordeste 14 Este 0 -- -- 76
2018-10-24 01:00:00 7.8 5 Este 23 Nordeste 0 -- -- 72
2018-10-24 00:00:00 8.3 12 Este 29 Este 0 -- -- 72
2018-10-23 23:00:00 9.2 16 Este 27 Nordeste 0 -- -- 71
2018-10-23 22:00:00 10.3 12 Este 22 Este 0 -- -- 67
2018-10-23 21:00:00 11.6 8 Nordeste 15 Este 0 -- -- 63
2018-10-23 20:00:00 14.1 10 Nordeste 35 Nordeste 0 -- -- 52
2018-10-23 19:00:00 16.4 21 Nordeste 36 Nordeste 0 -- -- 44
2018-10-23 18:00:00 18.2 20 Nordeste 37 Nordeste 0 -- -- 40
2018-10-23 17:00:00 19.4 18 Nordeste 32 Este 0 -- -- 40
2018-10-23 16:00:00 19.1 21 Nordeste 43 Nordeste 0 -- -- 41
2018-10-23 15:00:00 18.7 20 Nordeste 38 Este 0 -- -- 44
2018-10-23 14:00:00 17.6 19 Nordeste 36 Este 0 -- -- 47
2018-10-23 13:00:00 16.1 20 Este 39 Este 0 -- -- 51
2018-10-23 12:00:00 14.3 21 Este 41 Este 0 -- -- 58
2018-10-23 11:00:00 12 15 Nordeste 27 Este 0 -- -- 71
2018-10-23 10:00:00 8.4 10 Nordeste 15 Este 0 -- -- 84
2018-10-23 09:00:00 6.5 7 Este 23 Nordeste 0 -- -- 88
2018-10-23 08:00:00 6.6 11 Este 23 Este 0 -- -- 89
2018-10-23 07:00:00 6.8 10 Nordeste 19 Este 0 -- -- 89
2018-10-23 06:00:00 5.9 11 Nordeste 21 Nordeste 0 -- -- 89
2018-10-23 05:00:00 5.9 8 Este 15 Este 0 -- -- 88
2018-10-23 04:00:00 6.4 7 Nordeste 16 Este 0 -- -- 85
2018-10-23 03:00:00 6.4 5 Este 20 Este 0 -- -- 83
2018-10-23 02:00:00 7.3 11 Este 22 Nordeste 0 -- -- 82
2018-10-23 01:00:00 7.9 12 Este 23 Este 0 -- -- 80
2018-10-23 00:00:00 8.7 14 Nordeste 29 Este 0 -- -- 78
2018-10-22 23:00:00 8.8 15 Nordeste 27 Nordeste 0 -- -- 73
2018-10-22 22:00:00 9.4 15 Nordeste 41 Norte 0 -- -- 70
2018-10-22 21:00:00 10.5 28 Nordeste 44 Nordeste 0 -- -- 69
2018-10-22 20:00:00 11.6 23 Nordeste 40 Nordeste 0 -- -- 64
2018-10-22 19:00:00 13.8 25 Nordeste 46 Nordeste 0 -- -- 52
2018-10-22 18:00:00 16.6 22 Nordeste 45 Nordeste 0 -- -- 49
2018-10-22 17:00:00 17.8 27 Nordeste 48 Nordeste 0 -- -- 48
2018-10-22 16:00:00 18.3 27 Nordeste 46 Nordeste 0 -- -- 48
2018-10-22 15:00:00 18.6 24 Nordeste 41 Nordeste 0 -- -- 46
2018-10-22 14:00:00 18.1 23 Nordeste 43 Nordeste 0 -- -- 43
2018-10-22 13:00:00 16.7 25 Nordeste 42 Nordeste 0 -- -- 50
2018-10-22 12:00:00 15 20 Nordeste 38 Este 0 -- -- 57
2018-10-22 11:00:00 11.5 14 Nordeste 37 Nordeste 0 -- -- 81
2018-10-22 10:00:00 10.3 16 Este 29 Este 0 -- -- 87
2018-10-22 09:00:00 8 5 Nordeste 17 Este 0 -- -- 93
2018-10-22 08:00:00 8.7 6 Nordeste 18 Nordeste 0 -- -- 93
2018-10-22 07:00:00 8.2 8 Nordeste 14 Este 0 -- -- 94
2018-10-22 06:00:00 7.7 8 Nordeste 13 Nordeste 0 -- -- 95
2018-10-22 05:00:00 7 5 Nordeste 9 Nordeste 0 -- -- 92
2018-10-22 04:00:00 8 4 Nordeste 12 Este 0 -- -- 92
2018-10-22 03:00:00 8.2 5 Nordeste 8 Norte 0 -- -- 92
2018-10-22 02:00:00 8.8 3 Nordeste 6 Norte 0 -- -- 90
2018-10-22 01:00:00 9.4 5 Nordeste 6 Nordeste 0 -- -- 87
2018-10-22 00:00:00 10.8 2 Nordeste 9 Nordeste 0 -- -- 84
2018-10-21 23:00:00 12.7 5 Nordeste 14 Este 0 -- -- 77
2018-10-21 22:00:00 14.6 6 Este 13 Este 0 -- -- 75
2018-10-21 21:00:00 15.4 5 Este 18 Este 0 -- -- 68
2018-10-21 20:00:00 16.4 4 Nordeste 17 Nordeste 0 -- -- 59
2018-10-21 19:00:00 21.1 8 Este 16 Nordeste 0 -- -- 45
2018-10-21 18:00:00 23 6 Nordeste 20 Nordeste 0 -- -- 39
2018-10-21 17:00:00 23.7 10 Este 26 Nordeste 0 -- -- 37
2018-10-21 16:00:00 23.3 8 Nordeste 22 Nordeste 0 -- -- 42
2018-10-21 15:00:00 23.1 5 Este 15 Este 0 -- -- 43
2018-10-21 14:00:00 21.7 6 Este 15 Este 0 -- -- 49
2018-10-21 13:00:00 19.6 5 Este 14 Sudeste 0 -- -- 58
2018-10-21 12:00:00 16.5 6 Este 14 Nordeste 0 -- -- 75
2018-10-21 11:00:00 12.9 7 Este 13 Nordeste 0 -- -- 93
2018-10-21 10:00:00 10.8 6 Este 13 Nordeste 0 -- -- 96
2018-10-21 09:00:00 10.2 6 Nordeste 11 Este 0 -- -- 95
2018-10-21 08:00:00 10 6 Este 12 Nordeste 0 -- -- 95
2018-10-21 07:00:00 9.6 0 Calma 9 Nordeste 0 -- -- 95
2018-10-21 06:00:00 9.5 4 Nordeste 10 Nordeste 0 -- -- 94
2018-10-21 05:00:00 10.4 3 Nordeste 14 Nordeste 0 -- -- 92
2018-10-21 04:00:00 11.1 5 Nordeste 14 Nordeste 0 -- -- 93
2018-10-21 03:00:00 11.1 7 Nordeste 17 Este 0 -- -- 91
2018-10-21 02:00:00 11.1 4 Nordeste 17 Este 0 -- -- 91
2018-10-21 01:00:00 11.4 8 Nordeste 17 Nordeste 0 -- -- 91
2018-10-21 00:00:00 12.1 13 Nordeste 21 Nordeste 0 -- -- 89
2018-10-20 23:00:00 13.1 8 Nordeste 25 Este 0 -- -- 83
2018-10-20 22:00:00 15 20 Este 37 Este 0 -- -- 78
2018-10-20 21:00:00 15.4 20 Este 32 Este 0 -- -- 75
2018-10-20 20:00:00 15.9 16 Este 32 Este 0 -- -- 72
2018-10-20 19:00:00 17.7 20 Este 38 Este 0 -- -- 64
2018-10-20 18:00:00 19.3 22 Este 40 Este 0 -- -- 58
2018-10-20 17:00:00 20.3 19 Nordeste 37 Este 0 -- -- 55
2018-10-20 16:00:00 19.5 22 Este 38 Este 0 -- -- 58
2018-10-20 15:00:00 19 18 Nordeste 36 Nordeste 0 -- -- 60
2018-10-20 14:00:00 18.5 20 Este 36 Este 0 -- -- 61
2018-10-20 13:00:00 17.1 19 Este 37 Este 0 -- -- 66
2018-10-20 12:00:00 16 19 Este 35 Este 0 -- -- 71
2018-10-20 11:00:00 15 17 Este 34 Este 0 -- -- 75
2018-10-20 10:00:00 13.2 11 Este 22 Este 0 -- -- 83
2018-10-20 09:00:00 11.9 5 Nordeste 21 Nordeste 0 -- -- 86
2018-10-20 08:00:00 11.3 10 Nordeste 21 Nordeste 0 -- -- 87
2018-10-20 07:00:00 11.2 13 Nordeste 30 Nordeste 0 -- -- 85
2018-10-20 06:00:00 11.2 16 Nordeste 31 Nordeste 0 -- -- 83
2018-10-20 05:00:00 10.8 14 Nordeste 28 Nordeste 0 -- -- 84
2018-10-20 04:00:00 10.6 12 Nordeste 30 Nordeste 0 -- -- 84
2018-10-20 03:00:00 11.2 10 Nordeste 24 Este 0 -- -- 80
2018-10-20 02:00:00 11.1 11 Nordeste 25 Nordeste 0 -- -- 82
2018-10-20 01:00:00 11.5 8 Este 41 Nordeste 0 -- -- 83
2018-10-20 00:00:00 11.7 16 Nordeste 33 Nordeste 0 -- -- 84
2018-10-19 23:00:00 12.3 21 Nordeste 42 Nordeste 0 -- -- 84
2018-10-19 22:00:00 13.2 19 Nordeste 36 Nordeste 0 -- -- 82
2018-10-19 21:00:00 13.7 18 Nordeste 32 Nordeste 0 -- -- 82
2018-10-19 20:00:00 14.6 16 Nordeste 40 Nordeste 0 -- -- 77
2018-10-19 19:00:00 16 24 Nordeste 42 Nordeste 0 -- -- 71
2018-10-19 18:00:00 16.7 23 Nordeste 42 Nordeste 0 -- -- 70
2018-10-19 17:00:00 17.9 21 Nordeste 47 Este 0 -- -- 64
2018-10-19 16:00:00 18.5 22 Nordeste 48 Este 0 -- -- 62
2018-10-19 15:00:00 17.4 24 Este 43 Nordeste 0 -- -- 66
2018-10-19 14:00:00 17.6 23 Nordeste 42 Nordeste 0 -- -- 67
2018-10-19 13:00:00 17.3 22 Nordeste 40 Nordeste 0 -- -- 66
2018-10-19 12:00:00 15.4 27 Nordeste 49 Nordeste 0 -- -- 74
2018-10-19 11:00:00 15.5 28 Nordeste 46 Nordeste 0 -- -- 75
2018-10-19 10:00:00 13.3 15 Nordeste 33 Nordeste 0 -- -- 84
2018-10-19 09:00:00 11.6 10 Nordeste 26 Nordeste 0 -- -- 88
2018-10-19 08:00:00 12.1 11 Nordeste 21 Nordeste 0 -- -- 87
2018-10-19 07:00:00 12.1 8 Nordeste 27 Nordeste 0 -- -- 86
2018-10-19 06:00:00 11.9 12 Nordeste 26 Nordeste 0 -- -- 85
2018-10-19 05:00:00 12.8 15 Nordeste 35 Nordeste 0 -- -- 82
2018-10-19 04:00:00 12.9 17 Nordeste 33 Nordeste 0 -- -- 84
2018-10-19 03:00:00 13 15 Nordeste 34 Nordeste 0 -- -- 82
2018-10-19 02:00:00 13 16 Nordeste 30 Nordeste 0 -- -- 84
2018-10-19 01:00:00 12.2 10 Nordeste 21 Nordeste 0 -- -- 88
2018-10-19 00:00:00 12.3 10 Nordeste 26 Nordeste 0 -- -- 87
2018-10-18 23:00:00 13 13 Nordeste 29 Nordeste 0 -- -- 84
2018-10-18 22:00:00 13.2 13 Nordeste 32 Nordeste 0 -- -- 82
2018-10-18 21:00:00 12.9 18 Nordeste 33 Nordeste 0 -- -- 84
2018-10-18 20:00:00 13.4 18 Nordeste 41 Nordeste 0 -- -- 82
2018-10-18 19:00:00 14.6 23 Nordeste 41 Nordeste 0 -- -- 76
2018-10-18 18:00:00 15.9 27 Nordeste 47 Nordeste 0 -- -- 72
2018-10-18 17:00:00 16.4 26 Nordeste 44 Nordeste 0 -- -- 68
2018-10-18 16:00:00 16.6 20 Nordeste 37 Nordeste 0 -- -- 66
2018-10-18 15:00:00 17.4 20 Nordeste 40 Nordeste 0 -- -- 61
2018-10-18 14:00:00 17.4 21 Nordeste 39 Nordeste 0 -- -- 57
2018-10-18 13:00:00 16.9 21 Nordeste 36 Nordeste 0 -- -- 62
2018-10-18 12:00:00 15.7 19 Nordeste 40 Nordeste 0 -- -- 67
2018-10-18 11:00:00 14.2 21 Nordeste 39 Nordeste 0 -- -- 73
2018-10-18 10:00:00 12.4 11 Nordeste 28 Nordeste 0 -- -- 82
2018-10-18 09:00:00 11.9 14 Nordeste 29 Nordeste 0 -- -- 85
2018-10-18 08:00:00 11.9 12 Nordeste 21 Nordeste 0 -- -- 86
2018-10-18 07:00:00 12 9 Nordeste 18 Nordeste 0 -- -- 87
2018-10-18 06:00:00 12.1 9 Este 18 Nordeste 0 -- -- 87
2018-10-18 05:00:00 12 10 Nordeste 21 Este 0 -- -- 87
2018-10-18 04:00:00 11.9 11 Nordeste 19 Nordeste 0 -- -- 87
2018-10-18 03:00:00 11.3 7 Este 12 Este 0 -- -- 86
2018-10-18 02:00:00 10.6 6 Este 12 Este 0 -- -- 84
2018-10-18 01:00:00 9.7 3 Este 8 Nordeste 0 -- -- 84
2018-10-18 00:00:00 9.3 3 Norte 7 Nordeste 0 -- -- 84